Time;durP1;ratioP1;P1;durP2;ratioP2;P2;SDS_P1;SDS_P2;PMS_P1;PMS_P2;Temp;Humidity;BMP_temperature;BMP_pressure;BME280_temperature;BME280_humidity;BME280_pressure;Samples;Min_cycle;Max_cycle;Signal;HPM_P1;HPM_P2
2021/06/15 00:01:45;;;;;;;;;;;22.40;91.70;;;;;;4127613;28;20038;-83
2021/06/15 00:03:46;;;;;;;9.35;4.95;;;22.40;92.30;;;;;;4127075;28;19910;-83
2021/06/15 00:05:47;;;;;;;8.10;4.82;;;22.40;92.30;;;;;;4121375;28;20085;-83
2021/06/15 00:07:47;;;;;;;7.22;4.90;;;22.30;92.40;;;;;;4141047;28;20030;-83
2021/06/15 00:09:48;;;;;;;8.38;5.80;;;22.30;92.80;;;;;;4141970;28;20089;-83
2021/06/15 00:11:49;;;;;;;9.23;6.00;;;22.20;93.20;;;;;;4141847;28;20042;-83
2021/06/15 00:13:49;;;;;;;8.88;5.55;;;22.20;93.70;;;;;;4141842;28;20042;-83
2021/06/15 00:15:50;;;;;;;9.32;5.95;;;22.10;94.30;;;;;;4124272;28;20111;-83
2021/06/15 00:17:52;;;;;;;7.32;5.55;;;22.10;93.90;;;;;;4126712;28;20034;-83
2021/06/15 00:19:53;;;;;;;11.18;6.22;;;22.10;94.00;;;;;;4126842;28;20051;-83
2021/06/15 00:21:54;;;;;;;9.60;5.88;;;22.00;94.60;;;;;;4122155;28;20042;-83
2021/06/15 00:23:54;;;;;;;12.80;6.45;;;22.00;95.70;;;;;;4122114;28;20060;-83
2021/06/15 00:25:55;;;;;;;10.85;6.30;;;21.90;95.50;;;;;;4126950;28;20115;-83
2021/06/15 00:27:55;;;;;;;10.93;6.40;;;21.80;96.60;;;;;;4143014;28;20034;-83
2021/06/15 00:29:57;;;;;;;10.68;6.00;;;21.70;97.00;;;;;;4143065;28;20044;-83
2021/06/15 00:32:01;;;;;;;10.05;6.35;;;21.60;97.30;;;;;;4122681;28;20422;-83
2021/06/15 00:34:02;;;;;;;11.82;5.93;;;21.60;98.30;;;;;;4124128;28;20069;-83
2021/06/15 00:36:02;;;;;;;10.23;6.65;;;21.60;99.10;;;;;;4137457;28;20058;-83
2021/06/15 00:38:04;;;;;;;10.85;6.47;;;21.50;99.20;;;;;;4130980;28;20030;-83
2021/06/15 00:40:08;;;;;;;9.95;6.20;;;21.50;99.50;;;;;;4146661;28;20034;-83
2021/06/15 00:42:09;;;;;;;9.40;6.10;;;21.50;99.90;;;;;;4129788;28;20035;-83
2021/06/15 00:44:11;;;;;;;8.10;6.53;;;21.50;99.90;;;;;;4128031;28;20034;-83
2021/06/15 00:46:12;;;;;;;;;;;21.50;99.90;;;;;;4130316;28;20039;-83
2021/06/15 00:48:34;;;;;;;10.50;6.25;;;21.50;99.90;;;;;;4130033;28;19972;-83
2021/06/15 00:50:35;;;;;;;10.43;6.30;;;21.40;99.90;;;;;;4129571;28;20038;-83
2021/06/15 00:52:35;;;;;;;10.07;6.20;;;21.40;99.90;;;;;;4145310;28;20520;-83
2021/06/15 00:54:50;;;;;;;8.77;6.43;;;21.40;99.90;;;;;;4145932;28;20518;-83
2021/06/15 00:56:52;;;;;;;11.95;6.60;;;21.40;99.90;;;;;;4126444;28;20034;-84
2021/06/15 00:58:52;;;;;;;12.02;6.00;;;21.40;99.90;;;;;;4145794;28;20105;-84
2021/06/15 01:00:53;;;;;;;13.13;6.82;;;21.30;99.90;;;;;;4126612;28;20030;-85
2021/06/15 01:02:54;;;;;;;9.23;6.10;;;21.30;99.90;;;;;;4146058;28;20460;-85
2021/06/15 01:04:56;;;;;;;8.20;6.07;;;21.30;99.90;;;;;;4129768;28;20061;-84
2021/06/15 01:07:18;;;;;;;8.52;5.88;;;21.30;99.90;;;;;;4130224;28;20027;-84
2021/06/15 01:09:38;;;;;;;9.05;6.13;;;21.30;99.90;;;;;;4126556;28;20042;-84
2021/06/15 01:12:15;;;;;;;13.13;7.20;;;21.20;99.90;;;;;;4152848;28;20132;-84
2021/06/15 01:14:57;;;;;;;11.70;7.68;;;21.10;99.90;;;;;;4127062;28;20046;-85
2021/06/15 01:17:11;;;;;;;11.50;6.68;;;21.10;99.90;;;;;;4128786;28;20487;-85
2021/06/15 01:19:19;;;;;;;13.02;6.65;;;21.00;99.90;;;;;;4139734;28;20576;-85
2021/06/15 01:21:23;;;;;;;11.45;6.97;;;20.90;99.90;;;;;;4125864;28;20395;-85
2021/06/15 01:24:02;;;;;;;9.95;6.97;;;20.90;99.90;;;;;;4128571;28;20117;-84
2021/06/15 01:26:42;;;;;;;10.60;7.18;;;20.80;99.90;;;;;;4138860;28;20060;-84
2021/06/15 01:28:54;;;;;;;13.85;8.35;;;20.80;99.90;;;;;;4140888;28;20046;-84
2021/06/15 01:31:16;;;;;;;12.95;7.78;;;20.80;99.90;;;;;;4129127;28;20401;-84
2021/06/15 01:36:16;;;;;;;14.43;8.10;;;20.70;99.90;;;;;;4143460;28;20995;-84
2021/06/15 01:38:21;;;;;;;11.35;8.13;;;20.70;99.90;;;;;;4145733;28;20037;-84
2021/06/15 01:40:43;;;;;;;14.48;7.47;;;20.60;99.90;;;;;;4128084;28;20062;-84
2021/06/15 01:42:50;;;;;;;11.25;7.78;;;20.60;99.90;;;;;;4144048;28;20026;-84
2021/06/15 01:44:58;;;;;;;12.10;8.80;;;20.60;99.90;;;;;;4145918;28;20041;-84
2021/06/15 01:47:07;;;;;;;12.73;8.23;;;20.60;99.90;;;;;;4142918;28;20029;-84
2021/06/15 01:49:13;;;;;;;12.63;8.75;;;20.60;99.90;;;;;;4128599;28;20089;-84
2021/06/15 01:51:22;;;;;;;13.25;8.15;;;20.60;99.90;;;;;;4145793;28;20034;-84
2021/06/15 01:53:25;;;;;;;12.32;8.88;;;20.50;99.90;;;;;;4146887;28;20049;-84
2021/06/15 01:55:29;;;;;;;12.38;8.27;;;20.50;99.90;;;;;;4128781;28;20621;-84
2021/06/15 01:57:30;;;;;;;12.00;9.13;;;20.50;99.90;;;;;;4127502;28;20039;-84
2021/06/15 01:59:32;;;;;;;15.68;8.77;;;20.40;99.90;;;;;;4144584;28;20076;-84
2021/06/15 02:01:41;;;;;;;13.80;8.50;;;20.40;99.90;;;;;;4128914;28;20031;-84
2021/06/15 02:03:45;;;;;;;10.75;8.55;;;20.40;99.90;;;;;;4143478;28;20276;-84
2021/06/15 02:05:50;;;;;;;13.18;9.40;;;20.40;99.90;;;;;;4128423;28;20038;-84
2021/06/15 02:07:53;;;;;;;12.35;9.18;;;20.40;99.90;;;;;;4142117;28;20046;-84
2021/06/15 02:10:04;;;;;;;16.27;9.65;;;20.30;99.90;;;;;;4128109;28;20537;-84
2021/06/15 02:12:05;;;;;;;16.67;10.07;;;20.30;99.90;;;;;;4159368;28;20391;-84
2021/06/15 02:14:16;;;;;;;15.45;9.98;;;20.30;99.90;;;;;;4144987;28;20638;-84
2021/06/15 02:16:21;;;;;;;16.95;10.35;;;20.30;99.90;;;;;;4125652;28;20076;-84
2021/06/15 02:18:41;;;;;;;14.30;9.93;;;20.20;99.90;;;;;;4127716;28;20035;-84
2021/06/15 02:20:43;;;;;;;15.70;10.77;;;20.20;99.90;;;;;;4122306;28;20045;-84
2021/06/15 02:22:47;;;;;;;12.77;8.93;;;20.20;99.90;;;;;;4128156;28;20113;-84
2021/06/15 02:25:01;;;;;;;13.65;9.30;;;20.20;99.90;;;;;;4128031;28;20265;-84
2021/06/15 02:27:03;;;;;;;12.27;9.35;;;20.20;99.90;;;;;;4128103;28;20510;-84
2021/06/15 02:29:04;;;;;;;13.18;9.75;;;20.20;99.90;;;;;;4144688;28;20022;-84
2021/06/15 02:31:10;;;;;;;13.82;9.82;;;20.20;99.90;;;;;;4128161;28;20046;-84
2021/06/15 02:33:15;;;;;;;14.00;9.90;;;20.20;99.90;;;;;;4142199;28;20664;-84
2021/06/15 02:35:27;;;;;;;14.60;10.18;;;20.20;99.90;;;;;;4142673;28;20586;-84
2021/06/15 02:38:01;;;;;;;16.58;10.90;;;20.20;99.90;;;;;;4126145;28;20034;-84
2021/06/15 02:40:04;;;;;;;18.25;10.35;;;20.20;99.90;;;;;;4091545;28;20038;-84
2021/06/15 02:42:14;;;;;;;15.70;11.05;;;20.20;99.90;;;;;;4128292;28;20040;-84
2021/06/15 02:44:18;;;;;;;15.23;10.90;;;20.20;99.90;;;;;;4142817;28;20042;-84
2021/06/15 02:46:20;;;;;;;16.25;10.07;;;20.20;99.90;;;;;;4144576;28;20117;-84
2021/06/15 02:48:23;;;;;;;15.70;10.18;;;20.10;99.90;;;;;;4128727;28;20085;-84
2021/06/15 02:50:35;;;;;;;13.93;10.52;;;20.10;99.90;;;;;;4144257;28;20128;-84
2021/06/15 02:52:44;;;;;;;12.33;9.90;;;20.10;99.90;;;;;;4139840;28;20034;-85
2021/06/15 02:55:12;;;;;;;13.15;9.82;;;20.10;99.90;;;;;;4143305;28;20657;-84
2021/06/15 02:57:14;;;;;;;13.80;9.80;;;20.10;99.90;;;;;;4142069;28;20179;-84
2021/06/15 02:59:15;;;;;;;13.05;9.70;;;20.10;99.90;;;;;;4123419;28;20045;-84
2021/06/15 03:01:16;;;;;;;15.57;9.90;;;20.00;99.90;;;;;;4143970;28;20030;-84
2021/06/15 03:03:16;;;;;;;12.85;9.43;;;20.10;99.90;;;;;;4126833;28;20101;-84
2021/06/15 03:05:17;;;;;;;12.98;8.85;;;20.00;99.90;;;;;;4144628;28;20069;-84
2021/06/15 03:07:32;;;;;;;13.45;8.73;;;20.00;99.90;;;;;;4128312;28;20081;-84
2021/06/15 03:09:32;;;;;;;14.30;9.02;;;20.00;99.90;;;;;;4127887;28;20125;-84
2021/06/15 03:11:48;;;;;;;12.10;8.63;;;20.00;99.90;;;;;;4126516;28;20042;-84
2021/06/15 03:13:54;;;;;;;14.35;9.13;;;20.10;99.90;;;;;;4144148;28;20038;-84
2021/06/15 03:15:59;;;;;;;13.63;9.10;;;20.00;99.90;;;;;;4120496;28;20039;-84
2021/06/15 03:18:06;;;;;;;11.45;8.20;;;20.00;99.90;;;;;;4124366;28;20045;-84
2021/06/15 03:20:15;;;;;;;13.38;8.40;;;20.00;99.90;;;;;;4123216;28;20026;-84
2021/06/15 03:22:20;;;;;;;11.13;8.07;;;20.00;99.90;;;;;;4127819;28;20041;-84
2021/06/15 03:24:24;;;;;;;11.23;8.70;;;20.00;99.90;;;;;;4128158;28;20510;-84
2021/06/15 03:26:34;;;;;;;15.48;8.52;;;20.00;99.90;;;;;;4138891;28;20391;-84
2021/06/15 03:28:37;;;;;;;10.18;7.18;;;20.00;99.90;;;;;;4127948;28;20037;-84
2021/06/15 03:30:42;;;;;;;12.90;8.27;;;20.00;99.90;;;;;;4144653;28;20041;-84
2021/06/15 03:33:08;;;;;;;11.63;7.72;;;20.00;99.90;;;;;;4127603;28;20494;-84
2021/06/15 03:35:10;;;;;;;11.00;6.80;;;20.00;99.90;;;;;;4120857;28;20570;-84
2021/06/15 03:37:23;;;;;;;10.30;7.32;;;20.00;99.90;;;;;;4143101;28;20033;-84
2021/06/15 03:39:26;;;;;;;13.35;7.80;;;20.00;99.90;;;;;;4127432;28;20145;-84
2021/06/15 03:41:35;;;;;;;12.18;8.07;;;20.00;99.90;;;;;;4143868;28;20045;-84
2021/06/15 03:43:49;;;;;;;11.05;8.00;;;20.00;99.90;;;;;;4143439;28;20037;-84
2021/06/15 03:46:07;;;;;;;11.77;7.93;;;19.90;99.90;;;;;;4124547;28;20046;-84
2021/06/15 03:48:09;;;;;;;10.63;7.50;;;19.90;99.90;;;;;;4140382;28;20041;-84
2021/06/15 03:50:12;;;;;;;10.50;7.07;;;19.90;99.90;;;;;;4140618;28;20069;-84
2021/06/15 03:52:13;;;;;;;9.48;7.20;;;19.80;99.90;;;;;;4124058;28;20058;-84
2021/06/15 03:54:26;;;;;;;11.73;8.45;;;19.80;99.90;;;;;;4144553;28;20026;-84
2021/06/15 03:56:26;;;;;;;11.32;7.88;;;19.80;99.90;;;;;;4127668;28;20031;-84
2021/06/15 03:58:28;;;;;;;13.90;9.00;;;19.80;99.90;;;;;;4127868;28;20027;-85
2021/06/15 04:00:30;;;;;;;15.55;9.88;;;19.80;99.90;;;;;;4127301;28;20724;-85
2021/06/15 04:02:41;;;;;;;14.25;9.15;;;19.70;99.90;;;;;;4143835;28;20030;-85
2021/06/15 04:04:43;;;;;;;14.88;9.80;;;19.70;99.90;;;;;;4122685;28;20049;-84
2021/06/15 04:06:52;;;;;;;13.32;9.55;;;19.70;99.90;;;;;;4127312;28;20457;-84
2021/06/15 04:08:57;;;;;;;15.20;10.20;;;19.70;99.90;;;;;;4126850;28;20031;-84
2021/06/15 04:10:58;;;;;;;14.55;9.68;;;19.70;99.90;;;;;;4143630;28;20042;-84
2021/06/15 04:13:02;;;;;;;13.05;8.65;;;19.70;99.90;;;;;;4146829;28;20695;-84
2021/06/15 04:15:04;;;;;;;12.40;8.38;;;19.70;99.90;;;;;;4128846;28;20117;-84
2021/06/15 04:17:07;;;;;;;15.40;9.27;;;19.70;99.90;;;;;;4127754;28;20042;-84
2021/06/15 04:19:46;;;;;;;11.70;9.30;;;19.70;99.90;;;;;;4129792;28;20085;-84
2021/06/15 04:21:54;;;;;;;13.23;9.10;;;19.70;99.90;;;;;;4075314;29;20107;-84
2021/06/15 04:24:06;;;;;;;12.98;8.30;;;19.60;99.90;;;;;;4101419;28;20031;-84
2021/06/15 04:26:08;;;;;;;13.00;8.73;;;19.60;99.90;;;;;;4130100;28;20026;-84
2021/06/15 04:28:24;;;;;;;12.00;8.55;;;19.70;99.90;;;;;;4131030;28;20100;-84
2021/06/15 04:30:34;;;;;;;11.57;8.38;;;19.60;99.90;;;;;;4146705;28;20041;-84
2021/06/15 04:33:12;;;;;;;15.10;8.95;;;19.60;99.90;;;;;;4127435;28;20030;-84
2021/06/15 04:35:20;;;;;;;14.10;8.88;;;19.60;99.90;;;;;;4145169;28;20029;-84
2021/06/15 04:37:22;;;;;;;13.02;8.77;;;19.60;99.90;;;;;;4128278;28;20074;-84
2021/06/15 04:39:42;;;;;;;17.45;9.23;;;19.50;99.90;;;;;;4131321;28;20440;-85
2021/06/15 04:42:04;;;;;;;10.88;7.57;;;19.50;99.90;;;;;;4144851;28;20029;-84
2021/06/15 04:44:29;;;;;;;16.70;8.27;;;19.50;99.90;;;;;;4130040;28;20061;-84
2021/06/15 04:46:39;;;;;;;11.50;8.07;;;19.50;99.90;;;;;;4129916;28;20051;-84
2021/06/15 04:49:07;;;;;;;11.27;7.35;;;19.50;99.90;;;;;;4130363;28;20038;-84
2021/06/15 04:51:09;;;;;;;12.73;6.95;;;19.60;99.90;;;;;;4162945;28;20045;-84
2021/06/15 04:53:10;;;;;;;13.65;7.95;;;19.60;99.90;;;;;;4146651;28;20119;-84
2021/06/15 04:55:12;;;;;;;9.23;6.95;;;19.60;99.90;;;;;;4130480;28;20420;-84
2021/06/15 04:57:17;;;;;;;11.15;7.03;;;19.60;99.90;;;;;;4148313;28;20042;-84
2021/06/15 04:59:22;;;;;;;10.13;7.05;;;19.70;99.90;;;;;;4129006;28;20459;-84
2021/06/15 05:01:23;;;;;;;11.25;6.50;;;19.70;99.90;;;;;;4138828;28;20068;-85
2021/06/15 05:03:24;;;;;;;9.43;6.53;;;19.70;99.90;;;;;;4144517;28;20061;-85
2021/06/15 05:05:49;;;;;;;10.90;6.32;;;19.70;99.90;;;;;;4145819;28;20053;-85
2021/06/15 05:08:00;;;;;;;8.38;5.43;;;19.80;99.90;;;;;;4145080;28;20036;-81
2021/06/15 05:10:04;;;;;;;7.40;5.57;;;19.80;99.90;;;;;;4130032;28;20466;-81
2021/06/15 05:12:06;;;;;;;7.60;5.20;;;19.80;99.90;;;;;;4146702;28;20026;-80
2021/06/15 05:14:09;;;;;;;8.65;5.13;;;19.80;99.90;;;;;;4145025;28;20065;-81
2021/06/15 05:16:14;;;;;;;9.50;5.70;;;19.90;99.90;;;;;;4132865;28;20506;-81
2021/06/15 05:18:15;;;;;;;6.60;4.82;;;19.80;99.90;;;;;;4150652;28;20041;-81
2021/06/15 05:20:24;;;;;;;6.05;4.68;;;19.80;99.90;;;;;;4153970;28;20421;-81
2021/06/15 05:22:31;;;;;;;9.07;4.57;;;19.90;99.90;;;;;;4147064;28;20060;-81
2021/06/15 05:24:47;;;;;;;6.35;5.03;;;19.90;99.90;;;;;;4145815;28;20037;-82
2021/06/15 05:26:47;;;;;;;7.70;4.72;;;20.00;99.90;;;;;;4133228;28;20044;-81
2021/06/15 05:28:49;;;;;;;7.30;5.35;;;20.00;99.90;;;;;;4148218;28;20533;-81
2021/06/15 05:30:50;;;;;;;10.07;5.43;;;20.00;99.90;;;;;;4129266;28;20040;-81
2021/06/15 05:32:51;;;;;;;8.48;5.50;;;20.00;99.90;;;;;;4134131;28;20070;-82
2021/06/15 05:34:52;;;;;;;7.47;4.82;;;20.00;99.90;;;;;;4145500;28;20475;-81
2021/06/15 05:36:52;;;;;;;8.68;5.10;;;20.10;99.90;;;;;;4160600;28;20093;-81
2021/06/15 05:38:59;;;;;;;7.18;5.07;;;20.10;99.90;;;;;;4149838;28;20048;-81
2021/06/15 05:40:59;;;;;;;8.73;5.32;;;20.10;99.90;;;;;;4150515;28;20045;-81
2021/06/15 05:43:00;;;;;;;9.45;5.78;;;20.20;99.90;;;;;;4133208;28;20360;-81
2021/06/15 05:45:01;;;;;;;9.50;6.82;;;20.20;99.90;;;;;;4135450;28;20050;-82
2021/06/15 05:47:03;;;;;;;7.15;5.00;;;20.30;99.90;;;;;;4148768;28;20087;-82
2021/06/15 05:49:03;;;;;;;6.72;4.53;;;20.50;99.90;;;;;;4147860;28;20042;-82
2021/06/15 05:51:06;;;;;;;5.53;4.30;;;20.80;99.90;;;;;;4132478;28;20060;-82
2021/06/15 05:53:07;;;;;;;9.05;4.82;;;21.10;99.90;;;;;;4153482;28;20026;-83
2021/06/15 05:55:08;;;;;;;8.40;4.80;;;21.50;99.90;;;;;;4150049;28;20366;-82
2021/06/15 05:57:09;;;;;;;8.48;4.38;;;21.80;99.90;;;;;;4145439;28;20097;-82
2021/06/15 05:59:10;;;;;;;10.55;5.50;;;22.20;99.90;;;;;;4149847;28;20029;-82
2021/06/15 06:01:10;;;;;;;6.50;3.97;;;22.40;99.90;;;;;;4149883;28;20064;-82
2021/06/15 06:03:11;;;;;;;7.90;3.97;;;22.70;99.90;;;;;;4130431;28;20783;-82
2021/06/15 06:09:33;;;;;;;4.53;3.60;;;23.60;99.90;;;;;;4145038;28;20045;-82
2021/06/15 06:11:34;;;;;;;5.00;3.33;;;23.80;99.90;;;;;;4145004;28;20026;-82
2021/06/15 06:13:35;;;;;;;11.35;4.28;;;24.00;99.90;;;;;;4145058;28;20092;-82
2021/06/15 06:15:36;;;;;;;7.80;3.85;;;24.20;99.90;;;;;;4147859;28;20037;-81
2021/06/15 06:17:41;;;;;;;5.68;3.47;;;24.30;99.90;;;;;;4146612;28;20038;-81
2021/06/15 06:19:44;;;;;;;5.35;3.50;;;24.50;99.90;;;;;;4142982;28;20126;-81
2021/06/15 06:21:50;;;;;;;;;;;24.70;99.90;;;;;;4128806;28;20035;-81
2021/06/15 06:23:51;;;;;;;7.30;3.78;;;24.80;99.90;;;;;;4144475;28;20653;-81
2021/06/15 06:25:52;;;;;;;7.72;3.72;;;24.90;99.80;;;;;;4127300;28;20100;-81
2021/06/15 06:27:53;;;;;;;4.57;3.25;;;24.90;99.10;;;;;;4129530;28;20054;-81
2021/06/15 06:29:53;;;;;;;7.00;3.53;;;24.80;98.70;;;;;;4144572;28;20041;-82
2021/06/15 06:32:02;;;;;;;8.32;3.88;;;24.70;98.90;;;;;;4124690;28;20656;-81
2021/06/15 06:34:04;;;;;;;8.23;4.32;;;24.70;98.20;;;;;;4132494;28;20140;-81
2021/06/15 06:36:06;;;;;;;5.03;3.43;;;24.60;98.20;;;;;;4145567;28;20545;-79
2021/06/15 06:38:07;;;;;;;5.47;4.10;;;24.50;98.90;;;;;;4131821;28;20268;-79
2021/06/15 06:40:09;;;;;;;4.97;3.58;;;24.50;97.10;;;;;;4145666;28;20396;-79
2021/06/15 06:42:10;;;;;;;6.97;3.63;;;24.50;97.10;;;;;;4144952;28;20052;-79
2021/06/15 06:44:12;;;;;;;6.68;4.28;;;24.50;97.50;;;;;;4142922;28;20044;-79
2021/06/15 06:46:14;;;;;;;5.45;3.88;;;24.40;97.70;;;;;;4126818;28;20042;-79
2021/06/15 06:48:20;;;;;;;6.25;3.67;;;24.40;97.90;;;;;;4145014;28;20105;-79
2021/06/15 06:50:21;;;;;;;8.82;3.80;;;24.40;97.90;;;;;;4145869;28;20156;-79
2021/06/15 06:52:26;;;;;;;5.72;3.00;;;24.30;97.20;;;;;;4146138;28;20113;-79
2021/06/15 06:54:27;;;;;;;5.30;3.67;;;24.30;97.50;;;;;;4147635;28;20034;-81
2021/06/15 06:56:29;;;;;;;9.52;4.40;;;24.20;97.50;;;;;;4130824;28;20034;-82
2021/06/15 06:58:31;;;;;;;5.38;3.65;;;24.10;96.60;;;;;;4147581;28;20399;-82
2021/06/15 07:00:32;;;;;;;11.02;4.75;;;24.10;97.00;;;;;;4151559;28;20131;-82
2021/06/15 07:02:39;;;;;;;8.63;4.40;;;24.00;96.70;;;;;;4135519;28;20380;-81
2021/06/15 07:04:40;;;;;;;6.70;3.85;;;24.00;97.30;;;;;;4146010;28;20037;-82
2021/06/15 07:06:40;;;;;;;6.60;3.90;;;23.80;97.40;;;;;;4129580;28;20030;-81
2021/06/15 07:08:48;;;;;;;4.85;2.80;;;23.80;97.70;;;;;;4145187;28;20030;-81
2021/06/15 07:10:49;;;;;;;4.38;3.47;;;23.80;98.00;;;;;;4141152;28;20045;-81
2021/06/15 07:12:50;;;;;;;5.80;3.85;;;23.80;98.70;;;;;;4128163;28;20129;-81
2021/06/15 07:14:51;;;;;;;7.30;4.38;;;23.70;98.20;;;;;;4148296;28;20030;-81
2021/06/15 07:16:51;;;;;;;7.63;4.05;;;23.60;99.30;;;;;;4128040;28;20121;-81
2021/06/15 07:19:01;;;;;;;6.57;3.80;;;23.50;99.10;;;;;;4144513;28;20037;-81
2021/06/15 07:21:05;;;;;;;9.52;5.05;;;23.40;99.00;;;;;;4140882;28;20040;-81
2021/06/15 07:23:08;;;;;;;6.88;4.07;;;23.40;99.80;;;;;;4141138;28;20034;-81
2021/06/15 07:25:10;;;;;;;6.68;4.55;;;23.40;99.90;;;;;;4115568;28;20448;-82
2021/06/15 07:27:13;;;;;;;5.13;3.92;;;23.30;99.80;;;;;;4114574;28;20679;-81
2021/06/15 07:29:14;;;;;;;6.60;4.07;;;23.30;99.90;;;;;;4124167;28;20553;-82
2021/06/15 07:31:16;;;;;;;7.25;4.82;;;23.20;99.90;;;;;;4113936;28;20049;-81
2021/06/15 07:33:19;;;;;;;8.27;4.13;;;23.10;99.90;;;;;;4134768;28;20072;-81
2021/06/15 07:35:21;;;;;;;7.53;4.40;;;22.90;99.90;;;;;;4118285;28;20042;-82
2021/06/15 07:37:23;;;;;;;5.20;3.35;;;22.90;99.90;;;;;;4136036;28;20044;-81
2021/06/15 07:39:26;;;;;;;7.15;4.10;;;22.90;99.90;;;;;;4117266;28;20049;-81
2021/06/15 07:41:29;;;;;;;8.43;4.20;;;22.80;99.90;;;;;;4122107;28;20221;-82
2021/06/15 07:43:32;;;;;;;7.25;3.90;;;22.80;99.90;;;;;;4118960;28;20546;-81
2021/06/15 07:45:38;;;;;;;8.23;4.18;;;22.80;99.90;;;;;;4116082;28;20081;-81
2021/06/15 07:47:39;;;;;;;6.93;3.92;;;22.80;99.90;;;;;;4145096;28;20452;-81
2021/06/15 07:49:44;;;;;;;8.68;4.55;;;22.70;99.90;;;;;;4132259;28;20040;-82
2021/06/15 07:51:46;;;;;;;6.70;4.10;;;22.70;99.90;;;;;;4127518;28;20085;-81
2021/06/15 07:53:48;;;;;;;6.97;4.22;;;22.70;99.90;;;;;;4121810;28;20045;-81
2021/06/15 07:55:49;;;;;;;7.00;4.32;;;22.60;99.90;;;;;;4125895;28;20043;-81
2021/06/15 07:57:51;;;;;;;7.03;4.32;;;22.60;99.90;;;;;;4127835;28;20046;-81
2021/06/15 07:59:54;;;;;;;6.32;3.95;;;22.60;99.90;;;;;;4125245;28;20706;-82
2021/06/15 08:01:55;;;;;;;8.57;4.88;;;22.70;99.90;;;;;;4124658;28;20572;-81
2021/06/15 08:04:06;;;;;;;9.82;5.75;;;22.70;99.90;;;;;;4133112;28;20088;-81
2021/06/15 08:06:09;;;;;;;7.72;4.55;;;22.60;99.90;;;;;;4137095;28;20045;-81
2021/06/15 08:08:10;;;;;;;8.75;5.35;;;22.60;99.90;;;;;;4150038;28;20083;-82
2021/06/15 08:10:12;;;;;;;8.50;4.80;;;22.50;99.90;;;;;;4155595;28;20041;-81
2021/06/15 08:12:17;;;;;;;13.30;7.57;;;22.50;99.90;;;;;;4155049;28;20109;-81
2021/06/15 08:14:18;;;;;;;8.80;5.50;;;22.40;99.90;;;;;;4155249;28;20043;-82
2021/06/15 08:16:20;;;;;;;11.13;5.53;;;22.40;99.90;;;;;;4154525;28;20049;-81
2021/06/15 08:18:24;;;;;;;13.75;5.82;;;22.30;99.90;;;;;;4137788;28;20053;-84
2021/06/15 08:20:25;;;;;;;10.90;6.18;;;22.30;99.90;;;;;;4139669;28;20050;-81
2021/06/15 08:22:25;;;;;;;8.70;5.38;;;22.20;99.90;;;;;;4158449;28;20896;-81
2021/06/15 08:24:26;;;;;;;12.63;6.65;;;22.30;99.90;;;;;;4153309;28;20045;-81
2021/06/15 08:26:27;;;;;;;7.72;4.97;;;22.20;99.90;;;;;;4154864;28;20828;-81
2021/06/15 08:28:28;;;;;;;8.23;5.22;;;22.30;99.90;;;;;;4138265;28;20022;-81
2021/06/15 08:30:29;;;;;;;7.32;4.78;;;22.30;99.90;;;;;;4151283;28;20041;-81
2021/06/15 08:32:31;;;;;;;7.65;4.93;;;22.40;99.90;;;;;;4149609;28;20108;-81
2021/06/15 08:34:35;;;;;;;8.75;5.22;;;22.40;99.90;;;;;;4135677;28;20038;-81
2021/06/15 08:36:41;;;;;;;8.00;5.03;;;22.40;99.90;;;;;;4146578;28;20506;-82
2021/06/15 08:38:42;;;;;;;8.57;4.90;;;22.50;99.90;;;;;;4151382;28;20065;-82
2021/06/15 08:40:52;;;;;;;9.10;5.53;;;22.60;99.90;;;;;;4132851;28;20087;-81
2021/06/15 08:42:53;;;;;;;7.72;4.80;;;22.60;99.90;;;;;;4151317;28;20555;-82
2021/06/15 08:44:55;;;;;;;10.55;5.47;;;22.60;99.90;;;;;;4148983;28;20041;-81
2021/06/15 08:46:55;;;;;;;7.57;4.72;;;22.70;99.90;;;;;;4151483;28;20046;-81
2021/06/15 08:49:04;;;;;;;7.78;4.50;;;22.70;99.90;;;;;;4148700;28;20038;-81
2021/06/15 08:51:12;;;;;;;8.27;4.28;;;22.70;99.90;;;;;;4144895;28;20046;-81
2021/06/15 08:53:20;;;;;;;5.72;3.95;;;22.90;99.90;;;;;;4137990;28;20074;-82
2021/06/15 08:55:29;;;;;;;7.50;5.50;;;23.00;99.90;;;;;;4138204;28;20042;-81
2021/06/15 08:57:31;;;;;;;9.02;4.93;;;23.10;99.90;;;;;;4138002;28;20046;-81
2021/06/15 08:59:42;;;;;;;11.52;5.10;;;23.20;99.90;;;;;;4153948;28;20033;-81
2021/06/15 09:01:49;;;;;;;9.38;4.55;;;23.30;99.90;;;;;;4131582;28;20061;-81
2021/06/15 09:03:52;;;;;;;6.97;4.25;;;23.40;99.90;;;;;;4149346;28;20118;-82
2021/06/15 09:05:56;;;;;;;12.32;4.40;;;23.50;99.90;;;;;;4148922;28;20091;-81
2021/06/15 09:08:25;;;;;;;9.73;4.88;;;23.50;99.90;;;;;;4132210;28;20033;-82
2021/06/15 09:10:34;;;;;;;7.60;3.92;;;23.70;99.90;;;;;;4119231;28;20049;-82
2021/06/15 09:12:35;;;;;;;9.57;5.03;;;23.80;99.90;;;;;;4131233;28;20042;-82
2021/06/15 09:14:47;;;;;;;9.55;4.50;;;23.80;99.90;;;;;;4134186;28;20121;-82
2021/06/15 09:16:49;;;;;;;10.82;3.85;;;23.90;99.90;;;;;;4126110;28;20034;-82
2021/06/15 09:19:12;;;;;;;7.45;4.38;;;23.90;99.90;;;;;;4131232;28;20364;-81
2021/06/15 09:21:29;;;;;;;9.32;4.13;;;23.90;99.90;;;;;;4143520;28;20380;-82
2021/06/15 09:23:35;;;;;;;7.25;4.05;;;23.80;99.90;;;;;;4130694;28;20034;-81
2021/06/15 09:25:37;;;;;;;6.38;3.78;;;23.90;99.90;;;;;;4144646;28;20034;-81
2021/06/15 09:27:39;;;;;;;6.50;3.40;;;24.00;99.90;;;;;;4130336;28;20035;-81
2021/06/15 09:29:42;;;;;;;3.90;3.00;;;24.00;99.90;;;;;;4128963;28;20270;-81
2021/06/15 09:31:52;;;;;;;6.50;3.65;;;24.10;99.90;;;;;;4143950;28;20386;-81
2021/06/15 09:33:53;;;;;;;7.22;3.45;;;24.10;99.90;;;;;;4144923;28;20049;-81
2021/06/15 09:36:23;;;;;;;6.35;3.10;;;24.10;99.90;;;;;;4144839;28;20034;-81
2021/06/15 09:38:28;;;;;;;6.07;2.95;;;24.10;99.90;;;;;;4134028;28;20038;-81
2021/06/15 09:40:33;;;;;;;3.72;2.80;;;24.10;99.90;;;;;;4140398;28;20073;-81
2021/06/15 09:42:47;;;;;;;4.85;3.03;;;24.10;99.90;;;;;;4121247;28;20546;-81
2021/06/15 09:44:48;;;;;;;4.43;2.50;;;24.10;99.90;;;;;;4143538;28;20445;-81
2021/06/15 09:46:51;;;;;;;3.30;2.10;;;24.10;99.90;;;;;;4144010;28;20073;-81
2021/06/15 09:48:59;;;;;;;6.82;2.40;;;24.10;99.90;;;;;;4124697;28;20442;-82
2021/06/15 09:51:05;;;;;;;5.30;2.72;;;24.20;99.90;;;;;;4145791;28;20042;-81
2021/06/15 09:53:25;;;;;;;3.75;2.22;;;24.20;99.70;;;;;;4141524;28;20104;-81
2021/06/15 09:55:26;;;;;;;4.28;2.40;;;24.20;99.90;;;;;;4143660;28;20144;-81
2021/06/15 09:57:30;;;;;;;4.18;2.03;;;24.30;99.50;;;;;;4126604;28;20038;-82
2021/06/15 09:59:30;;;;;;;2.47;1.83;;;24.40;98.80;;;;;;4141991;28;20307;-82
2021/06/15 10:01:35;;;;;;;9.93;2.08;;;24.50;98.00;;;;;;4143225;28;20046;-81
2021/06/15 10:03:36;;;;;;;2.88;1.70;;;24.60;97.00;;;;;;4142009;28;20042;-82
2021/06/15 10:05:37;;;;;;;2.83;1.67;;;24.60;97.60;;;;;;4124130;28;20123;-81
2021/06/15 10:07:41;;;;;;;1.70;1.42;;;24.70;96.60;;;;;;4139832;28;20088;-81
2021/06/15 10:09:41;;;;;;;2.85;1.58;;;24.80;95.70;;;;;;4145006;28;20036;-81
2021/06/15 10:11:46;;;;;;;1.75;1.17;;;24.90;95.50;;;;;;4122430;28;20046;-81
2021/06/15 10:13:46;;;;;;;1.38;1.20;;;25.00;94.00;;;;;;4128053;28;20038;-81
2021/06/15 10:15:49;;;;;;;2.92;1.58;;;25.00;93.80;;;;;;4142953;28;20060;-81
2021/06/15 10:17:50;;;;;;;1.33;1.02;;;25.00;92.90;;;;;;4127493;28;20469;-81
2021/06/15 10:19:51;;;;;;;3.63;1.45;;;25.00;93.50;;;;;;4123057;28;20046;-81
2021/06/15 10:21:53;;;;;;;2.35;1.33;;;25.10;92.30;;;;;;4142824;28;20045;-81
2021/06/15 10:23:54;;;;;;;4.55;1.30;;;25.00;88.70;;;;;;4144002;28;20055;-78
2021/06/15 10:25:56;;;;;;;4.32;1.75;;;25.00;84.90;;;;;;4142553;28;20044;-79
2021/06/15 10:27:58;;;;;;;3.25;1.67;;;25.00;92.70;;;;;;4126356;28;20049;-81
2021/06/15 10:29:59;;;;;;;3.22;1.48;;;25.10;92.90;;;;;;4140691;28;20137;-81
2021/06/15 10:32:15;;;;;;;2.40;1.33;;;25.10;92.40;;;;;;4142247;28;20525;-81
2021/06/15 10:34:49;;;;;;;3.92;1.50;;;25.10;90.50;;;;;;4141601;28;20068;-81
2021/06/15 10:36:50;;;;;;;2.55;1.48;;;25.10;92.70;;;;;;4129943;28;20038;-80
2021/06/15 10:38:52;;;;;;;2.95;1.63;;;25.20;91.40;;;;;;4126644;28;20050;-81
2021/06/15 10:40:55;;;;;;;1.98;1.10;;;25.10;90.30;;;;;;4146371;28;20132;-81
2021/06/15 10:43:19;;;;;;;2.17;1.02;;;25.10;90.40;;;;;;4142973;28;20049;-81
2021/06/15 10:45:21;;;;;;;2.15;1.05;;;25.20;90.70;;;;;;4138937;28;20059;-81
2021/06/15 10:47:22;;;;;;;2.47;0.90;;;25.20;88.20;;;;;;4141297;28;20053;-81
2021/06/15 10:49:23;;;;;;;2.83;1.30;;;25.20;80.10;;;;;;4141418;28;20116;-81
2021/06/15 10:51:31;;;;;;;3.22;1.17;;;25.30;85.70;;;;;;4141570;28;20530;-80
2021/06/15 10:53:40;;;;;;;2.40;1.02;;;25.30;84.60;;;;;;4147339;28;20052;-80
2021/06/15 10:55:50;;;;;;;2.83;1.17;;;25.40;85.70;;;;;;4142058;28;20045;-80
2021/06/15 10:57:51;;;;;;;1.77;0.90;;;25.40;80.00;;;;;;4128665;28;20030;-80
2021/06/15 11:00:08;;;;;;;3.20;0.88;;;25.40;82.90;;;;;;4143686;28;20034;-81